createdAt,value
2019-02-18T00:02:02.057Z,88.50
2019-02-18T00:32:05.542Z,86.40
2019-02-18T01:02:09.028Z,89.70
2019-02-18T01:32:12.462Z,90.20
2019-02-18T02:02:15.861Z,91.80
2019-02-18T02:32:20.213Z,91.90
2019-02-18T03:02:23.622Z,92.10
2019-02-18T03:32:27.064Z,90.80
2019-02-18T04:02:30.455Z,91.50
2019-02-18T04:32:33.882Z,92.00
2019-02-18T05:02:37.314Z,91.70
2019-02-18T05:32:40.713Z,91.50
2019-02-18T06:02:44.118Z,91.70
2019-02-18T06:32:47.539Z,92.40
2019-02-18T07:02:52.739Z,93.80
2019-02-18T07:32:56.166Z,89.70
2019-02-18T08:02:59.604Z,87.20
2019-02-18T08:33:03.012Z,79.10
2019-02-18T09:03:06.517Z,69.50
2019-02-18T09:33:09.918Z,58.50
2019-02-18T10:03:13.331Z,53.10
2019-02-18T10:33:16.748Z,45.30
2019-02-18T11:03:20.215Z,40.10
2019-02-18T11:33:23.652Z,38.60
2019-02-18T12:03:27.097Z,38.10
2019-02-18T12:33:30.518Z,31.90
2019-02-18T13:03:33.953Z,33.30
2019-02-18T13:33:37.376Z,31.60
2019-02-18T14:03:40.815Z,33.40
2019-02-18T14:33:44.256Z,38.00
2019-02-18T15:03:48.578Z,44.30
2019-02-18T15:33:51.987Z,45.50
2019-02-18T16:03:55.445Z,44.20
2019-02-18T16:33:58.848Z,47.60
2019-02-18T17:04:02.252Z,53.00
2019-02-18T17:34:05.675Z,53.70
2019-02-18T18:04:09.152Z,56.00
2019-02-18T18:34:12.650Z,62.40
2019-02-18T19:04:16.377Z,67.00
2019-02-18T19:34:19.782Z,71.00
2019-02-18T20:04:24.859Z,76.80
2019-02-18T20:34:28.345Z,75.70
2019-02-18T21:04:32.103Z,77.40
2019-02-18T21:34:35.540Z,80.60
2019-02-18T22:04:38.987Z,78.90
2019-02-18T22:34:42.502Z,81.10
2019-02-18T23:04:45.962Z,83.70
2019-02-18T23:34:49.386Z,85.60
